METAR Data
IDs: Format: Raw Decoded Include TAF

Data at: 1424 UTC 10 Aug 2022

KCEC 101356Z AUTO 11003KT 9SM CLR 13/12 A3007 RMK AO2 SLP183 T01280122
KCEC 101256Z AUTO 09006KT 10SM CLR 13/12 A3005 RMK AO2 SLP175 T01330117
KCEC 101156Z AUTO 09006KT 10SM CLR 13/12 A3005 RMK AO2 SLP174 T01330117 10144 20128 51002
KCEC 101056Z AUTO 08004KT 10SM CLR 13/12 A3004 RMK AO2 SLP173 T01330117
KCEC 100956Z AUTO 00000KT 10SM OVC095 13/12 A3005 RMK AO2 SLP174 T01330122
KCEC 100856Z AUTO 00000KT 9SM OVC100 14/13 A3004 RMK AO2 SLP172 T01390128 50001
KCEC 100756Z AUTO 00000KT 9SM SCT100 14/13 A3004 RMK AO2 SLP173 T01390128 401830139
KCEC 100656Z AUTO 00000KT 8SM BKN100 OVC120 14/12 A3004 RMK AO2 SLP171 T01440122
KCEC 100556Z AUTO 00000KT 9SM CLR 14/12 A3004 RMK AO2 SLP171 T01440122 10172 20139 51004
KCEC 100456Z AUTO 00000KT 10SM FEW019 15/13 A3003 RMK AO2 SLP170 T01500128
KCEC 100453Z AUTO 00000KT 9SM FEW019 FEW027 15/12 A3003 RMK AO2
KCEC 100356Z AUTO 00000KT 10SM OVC023 16/13 A3003 RMK AO2 SLP167 T01610128
KCEC 100256Z AUTO 16003KT 10SM OVC025 16/13 A3002 RMK AO2 SLP166 T01610128 51002
KCEC 100156Z AUTO 22003KT 10SM OVC028 16/13 A3002 RMK AO2 SLP166 T01610133
KCEC 100056Z AUTO 22004KT 10SM OVC026 17/13 A3003 RMK AO2 SLP168 T01670133
KCEC 092356Z AUTO 21004KT 10SM OVC025 17/13 A3002 RMK AO2 SLP164 T01720133 10183 20161 51001
KCEC 092256Z AUTO 22006KT 10SM OVC025 17/13 A3002 RMK AO2 SLP164 T01720133
KCEC 092156Z AUTO 20008KT 10SM OVC024 17/13 A3002 RMK AO2 SLP166 T01670133
KCEC 092056Z AUTO 20007KT 10SM OVC021 18/13 A3001 RMK AO2 SLP163 T01780133 53002
KCEC 091956Z AUTO 24006KT 10SM OVC016 18/13 A3001 RMK AO2 SLP161 T01780133
KCEC 091917Z AUTO 16004KT 10SM SCT012 OVC019 18/13 A3000 RMK AO2 T01780133
KCEC 091856Z AUTO 00000KT 10SM OVC012 17/13 A3000 RMK AO2 SLP160 T01670133
KCEC 091756Z AUTO 22004KT 9SM OVC012 16/13 A3001 RMK AO2 SLP161 T01610128 10167 20150 51004
KCEC 091656Z AUTO 22003KT 9SM OVC012 16/13 A3001 RMK AO2 SLP160 T01560128
KCEC 091556Z AUTO 23003KT 8SM OVC011 16/13 A3000 RMK AO2 SLP159 T01560133
KCEC 091456Z AUTO 00000KT 6SM BR OVC010 15/13 A3000 RMK AO2 SLP158 T01500133 53005
KCEC 091356Z AUTO 00000KT 9SM OVC011 15/13 A2999 RMK AO2 SLP156 T01500128
KCEC 091256Z AUTO 00000KT 7SM OVC010 15/13 A2999 RMK AO2 SLP154 T01500128
KCEC 091156Z AUTO 00000KT 8SM OVC011 16/13 A2998 RMK AO2 SLP153 T01560128 10156 20156 55006
KCEC 091056Z AUTO 35003KT 8SM OVC012 16/13 A2998 RMK AO2 SLP151 T01560133
KCEC 090956Z AUTO 00000KT 7SM OVC014 16/13 A2999 RMK AO2 SLP154 T01560133
KCEC 090923Z AUTO 00000KT 7SM OVC014 16/13 A3000 RMK AO2 T01560133
KCEC 090856Z AUTO 31003KT 8SM OVC015 16/13 A3000 RMK AO2 SLP159 T01560133 56005
KCEC 090756Z AUTO 00000KT 7SM OVC016 16/13 A3001 RMK AO2 SLP160 T01560133 402000150
KCEC 090656Z AUTO 34004KT 8SM OVC016 16/13 A3001 RMK AO2 SLP161 T01560133
KCEC 090556Z AUTO 36004KT 9SM OVC017 16/13 A3002 RMK AO2 SLP164 T01560133 10183 20156 50001
KCEC 090456Z AUTO 34003KT 10SM OVC018 16/13 A3003 RMK AO2 SLP167 T01610128
KCEC 090356Z AUTO 35003KT 9SM OVC019 16/13 A3002 RMK AO2 SLP166 T01610133
KCEC 090256Z AUTO 00000KT 8SM OVC021 17/13 A3001 RMK AO2 SLP163 T01670133 56009